Time;durP1;ratioP1;P1;durP2;ratioP2;P2;SDS_P1;SDS_P2;PMS_P1;PMS_P2;Temp;Humidity;BMP_temperature;BMP_pressure;BME280_temperature;BME280_humidity;BME280_pressure;Samples;Min_cycle;Max_cycle;Signal;HPM_P1;HPM_P2
2023/12/12 00:00:50;;;;;;;22.55;6.03;;;;;;;6.05;100.00;100700.25;5077884;28;20040;-56
2023/12/12 00:03:16;;;;;;;19.38;6.40;;;;;;;5.99;100.00;100698.59;5071883;28;20539;-56
2023/12/12 00:05:41;;;;;;;21.67;5.82;;;;;;;5.92;100.00;100694.19;5069459;28;20040;-56
2023/12/12 00:08:06;;;;;;;22.80;5.97;;;;;;;5.87;100.00;100705.22;5084186;28;20431;-55
2023/12/12 00:10:31;;;;;;;17.77;5.25;;;;;;;5.80;100.00;100712.06;5078027;28;20036;-56
2023/12/12 00:12:57;;;;;;;19.63;5.35;;;;;;;5.77;100.00;100717.00;5080915;28;20036;-56
2023/12/12 00:15:22;;;;;;;21.88;5.80;;;;;;;5.72;100.00;100714.28;5080102;28;20020;-56
2023/12/12 00:17:47;;;;;;;18.95;5.90;;;;;;;5.63;100.00;100707.72;5076069;28;20024;-56
2023/12/12 00:20:13;;;;;;;23.38;6.43;;;;;;;5.59;100.00;100712.09;5088893;28;20023;-55
2023/12/12 00:22:38;;;;;;;20.88;5.57;;;;;;;5.58;100.00;100718.69;5089430;28;20521;-56
2023/12/12 00:25:03;;;;;;;21.88;6.22;;;;;;;5.55;100.00;100728.28;5075486;28;20070;-56
2023/12/12 00:27:29;;;;;;;18.80;5.50;;;;;;;5.52;100.00;100726.13;5073436;28;20436;-57
2023/12/12 00:29:55;;;;;;;21.00;5.72;;;;;;;5.50;100.00;100720.09;5077627;28;20052;-56
2023/12/12 00:32:20;;;;;;;22.38;6.13;;;;;;;5.42;100.00;100720.63;5073255;28;20079;-55
2023/12/12 00:34:45;;;;;;;19.75;5.90;;;;;;;5.38;100.00;100720.38;5073301;28;20060;-56
2023/12/12 00:37:11;;;;;;;19.70;5.57;;;;;;;5.31;100.00;100722.53;5073417;28;20045;-55
2023/12/12 00:39:37;;;;;;;22.35;5.70;;;;;;;5.26;100.00;100720.63;5074028;28;20029;-56
2023/12/12 00:42:03;;;;;;;21.63;5.50;;;;;;;5.25;100.00;100724.44;5088446;28;20079;-56
2023/12/12 00:44:28;;;;;;;20.67;5.82;;;;;;;5.22;100.00;100716.78;5088698;28;20127;-55
2023/12/12 00:46:54;;;;;;;20.67;5.63;;;;;;;5.21;100.00;100719.78;5093752;28;20028;-56
2023/12/12 00:49:19;;;;;;;22.52;6.28;;;;;;;5.17;100.00;100714.03;5084163;28;20037;-56
2023/12/12 00:51:44;;;;;;;23.90;6.25;;;;;;;5.22;100.00;100713.19;5072997;28;20028;-56
2023/12/12 00:54:09;;;;;;;19.77;5.82;;;;;;;5.25;100.00;100715.41;5073014;28;20128;-56
2023/12/12 00:56:35;;;;;;;21.25;5.80;;;;;;;5.26;100.00;100706.09;5076065;28;20472;-56
2023/12/12 00:59:00;;;;;;;22.52;6.00;;;;;;;5.28;100.00;100701.97;5081075;28;20052;-56
2023/12/12 01:01:25;;;;;;;21.02;5.63;;;;;;;5.29;100.00;100708.28;5079498;28;20028;-58
2023/12/12 01:03:51;;;;;;;23.48;6.60;;;;;;;5.29;100.00;100705.56;5074199;28;20029;-57
2023/12/12 01:06:24;;;;;;;22.50;6.30;;;;;;;5.25;100.00;100702.50;5076879;28;20096;-57
2023/12/12 01:08:49;;;;;;;23.95;6.00;;;;;;;5.23;100.00;100693.75;5092107;28;20106;-56
2023/12/12 01:11:15;;;;;;;21.70;6.43;;;;;;;5.20;100.00;100702.53;5075054;28;20503;-56
2023/12/12 01:13:40;;;;;;;25.27;6.38;;;;;;;5.16;100.00;100698.66;5073526;28;20131;-57
2023/12/12 01:16:06;;;;;;;24.13;6.65;;;;;;;5.14;100.00;100693.47;5081874;28;20447;-57
2023/12/12 01:18:31;;;;;;;23.77;6.22;;;;;;;5.15;100.00;100702.50;5081995;28;20109;-57
2023/12/12 01:20:56;;;;;;;25.88;6.50;;;;;;;5.11;100.00;100702.22;5081946;28;20401;-56
2023/12/12 01:23:22;;;;;;;21.73;6.50;;;;;;;5.10;100.00;100695.09;5087636;28;20029;-56
2023/12/12 01:25:47;;;;;;;24.45;7.00;;;;;;;5.09;100.00;100696.22;5071934;28;20032;-56
2023/12/12 01:28:12;;;;;;;23.23;6.07;;;;;;;5.07;100.00;100692.06;5087118;28;20089;-57
2023/12/12 01:30:37;;;;;;;24.52;6.80;;;;;;;5.11;100.00;100684.97;5089808;28;20032;-57
2023/12/12 01:33:03;;;;;;;21.23;6.15;;;;;;;5.09;100.00;100684.41;5090737;28;20036;-56
2023/12/12 01:35:28;;;;;;;25.33;7.07;;;;;;;5.12;100.00;100681.94;5077000;28;20065;-56
2023/12/12 01:37:53;;;;;;;22.88;6.78;;;;;;;5.14;100.00;100677.00;5072688;28;20024;-56
2023/12/12 01:40:19;;;;;;;24.13;7.10;;;;;;;5.11;100.00;100669.31;5091534;28;20531;-57
2023/12/12 01:42:44;;;;;;;22.40;6.07;;;;;;;5.12;100.00;100665.47;5091625;28;20048;-56
2023/12/12 01:45:09;;;;;;;23.20;6.18;;;;;;;5.11;100.00;100668.50;5073341;28;20420;-57
2023/12/12 01:47:35;;;;;;;23.48;6.30;;;;;;;5.09;100.00;100666.06;5083839;28;20027;-56
2023/12/12 01:50:00;;;;;;;21.98;6.15;;;;;;;5.12;100.00;100681.94;5077280;28;20040;-57
2023/12/12 01:52:26;;;;;;;22.40;6.63;;;;;;;5.14;100.00;100666.03;5071255;28;20487;-56
2023/12/12 01:54:52;;;;;;;23.55;6.47;;;;;;;5.17;100.00;100672.06;5083545;28;20052;-56
2023/12/12 01:57:20;;;;;;;26.50;6.57;;;;;;;5.17;100.00;100669.34;5083222;28;20028;-57
2023/12/12 01:59:45;;;;;;;22.92;6.80;;;;;;;5.19;100.00;100669.91;5076530;28;20455;-57
2023/12/12 02:02:12;;;;;;;22.58;6.85;;;;;;;5.18;100.00;100669.06;5088454;28;20524;-56
2023/12/12 02:04:38;;;;;;;23.27;6.93;;;;;;;5.17;100.00;100666.59;5087654;28;20032;-56
2023/12/12 02:07:04;;;;;;;22.15;6.60;;;;;;;5.13;100.00;100669.88;5091677;28;20028;-56
2023/12/12 02:09:30;;;;;;;21.63;6.22;;;;;;;5.04;100.00;100657.00;5082473;28;20031;-56
2023/12/12 02:11:56;;;;;;;24.92;6.32;;;;;;;5.12;100.00;100665.47;5077080;28;20107;-56
2023/12/12 02:14:21;;;;;;;23.95;6.25;;;;;;;5.13;100.00;100669.88;5085305;28;20493;-56
2023/12/12 02:16:46;;;;;;;22.60;6.30;;;;;;;5.11;100.00;100658.34;5071298;28;20103;-56
2023/12/12 02:19:12;;;;;;;25.98;6.22;;;;;;;5.09;100.00;100667.94;5074606;28;20017;-56
2023/12/12 02:21:37;;;;;;;26.98;6.60;;;;;;;5.05;100.00;100667.69;5071275;28;20028;-56
2023/12/12 02:24:03;;;;;;;26.58;6.57;;;;;;;5.06;100.00;100661.09;5083631;28;20051;-56
2023/12/12 02:26:28;;;;;;;25.75;6.53;;;;;;;5.04;100.00;100659.75;5078515;28;20031;-56
2023/12/12 02:28:53;;;;;;;25.83;6.32;;;;;;;5.00;100.00;100664.94;5086715;28;20048;-55
2023/12/12 02:31:19;;;;;;;24.52;6.20;;;;;;;4.98;100.00;100658.91;5071369;28;20523;-56
2023/12/12 02:33:44;;;;;;;27.63;8.40;;;;;;;4.95;100.00;100665.78;5074841;28;20454;-56
2023/12/12 02:36:09;;;;;;;24.42;6.97;;;;;;;4.92;100.00;100652.59;5091389;28;20481;-57
2023/12/12 02:38:35;;;;;;;24.38;6.65;;;;;;;4.90;100.00;100651.22;5088267;28;20250;-57
2023/12/12 02:41:00;;;;;;;28.38;6.78;;;;;;;4.89;100.00;100663.28;5076321;28;20052;-57
2023/12/12 02:43:25;;;;;;;26.95;6.80;;;;;;;4.84;100.00;100653.94;5071679;28;20523;-57
2023/12/12 02:45:51;;;;;;;25.40;6.65;;;;;;;4.81;100.00;100648.19;5076081;28;20337;-57
2023/12/12 02:48:16;;;;;;;25.15;6.28;;;;;;;4.80;100.00;100654.75;5070705;28;20031;-56
2023/12/12 02:50:41;;;;;;;24.23;7.15;;;;;;;4.77;100.00;100650.66;5072321;28;20101;-59
2023/12/12 02:53:07;;;;;;;25.40;6.47;;;;;;;4.75;100.00;100643.81;5070494;28;20024;-57
2023/12/12 02:55:32;;;;;;;22.85;6.53;;;;;;;4.69;100.00;100651.19;5071711;28;20066;-57
2023/12/12 02:57:57;;;;;;;25.33;6.53;;;;;;;4.65;100.00;100652.81;5097850;28;20472;-57
2023/12/12 03:00:23;;;;;;;23.48;5.93;;;;;;;4.62;100.00;100656.13;5083811;28;20024;-57
2023/12/12 03:02:48;;;;;;;24.38;6.28;;;;;;;4.59;100.00;100651.97;5070476;28;20028;-56
2023/12/12 03:05:13;;;;;;;27.95;6.57;;;;;;;4.56;100.00;100649.81;5072933;28;20549;-57
2023/12/12 03:07:39;;;;;;;24.58;6.57;;;;;;;4.53;100.00;100661.28;5070287;28;20036;-56
2023/12/12 03:10:04;;;;;;;28.58;7.05;;;;;;;4.49;100.00;100661.00;5076401;28;20108;-55
2023/12/12 03:12:30;;;;;;;25.30;6.13;;;;;;;4.48;100.00;100653.06;5069788;28;20055;-55
2023/12/12 03:14:55;;;;;;;26.17;7.93;;;;;;;4.47;100.00;100649.50;5072678;28;20158;-56
2023/12/12 03:17:21;;;;;;;27.15;7.53;;;;;;;4.47;100.00;100644.03;5087996;28;20495;-55
2023/12/12 03:19:46;;;;;;;29.52;7.10;;;;;;;4.48;100.00;100642.13;5071873;28;20356;-55
2023/12/12 03:22:11;;;;;;;30.23;6.55;;;;;;;4.48;100.00;100642.13;5086502;28;20040;-55
2023/12/12 03:24:36;;;;;;;27.15;6.68;;;;;;;4.45;100.00;100632.50;5080194;28;20502;-55
2023/12/12 03:27:02;;;;;;;26.25;7.05;;;;;;;4.46;100.00;100636.09;5084975;28;20032;-54
2023/12/12 03:29:28;;;;;;;26.67;6.78;;;;;;;4.43;100.00;100626.50;5076402;28;20093;-55
2023/12/12 03:31:53;;;;;;;28.80;7.32;;;;;;;4.46;100.00;100631.41;5086691;28;20099;-56
2023/12/12 03:34:18;;;;;;;28.50;8.40;;;;;;;4.47;100.00;100629.50;5075617;28;20115;-56
2023/12/12 03:36:44;;;;;;;25.70;6.70;;;;;;;4.47;100.00;100629.50;5088737;28;20031;-56
2023/12/12 03:39:10;;;;;;;30.15;7.20;;;;;;;4.47;100.00;100630.31;5072470;28;20089;-56
2023/12/12 03:41:35;;;;;;;27.63;6.63;;;;;;;4.42;100.00;100630.31;5069448;28;20496;-55
2023/12/12 03:44:01;;;;;;;29.70;6.53;;;;;;;4.46;100.00;100636.88;5079849;28;20032;-55
2023/12/12 03:46:26;;;;;;;28.42;6.53;;;;;;;4.42;100.00;100630.31;5090204;28;20035;-56
2023/12/12 03:48:51;;;;;;;24.98;6.57;;;;;;;4.43;100.00;100622.91;5096900;28;20126;-57
2023/12/12 03:51:17;;;;;;;26.55;6.75;;;;;;;4.39;100.00;100617.16;5069744;28;20043;-56
2023/12/12 03:53:42;;;;;;;31.08;8.20;;;;;;;4.34;100.00;100612.50;5069092;28;20056;-57
2023/12/12 03:56:08;;;;;;;27.65;6.95;;;;;;;4.34;100.00;100615.22;5069655;28;20040;-57
2023/12/12 03:58:34;;;;;;;24.88;6.28;;;;;;;4.32;100.00;100602.91;5072853;28;20483;-56
2023/12/12 04:00:59;;;;;;;28.85;6.53;;;;;;;4.34;100.00;100592.50;5088703;28;20036;-56
2023/12/12 04:03:25;;;;;;;26.02;6.53;;;;;;;4.34;100.00;100590.59;5074210;28;20032;-56
2023/12/12 04:05:50;;;;;;;22.45;6.88;;;;;;;4.32;100.00;100584.53;5069801;28;20086;-56
2023/12/12 04:08:15;;;;;;;29.30;6.65;;;;;;;4.36;100.00;100585.66;5082055;28;20401;-56
2023/12/12 04:10:41;;;;;;;27.63;6.60;;;;;;;4.40;100.00;100582.34;5087661;28;20124;-56
2023/12/12 04:13:06;;;;;;;23.88;6.63;;;;;;;4.41;100.00;100584.00;5069424;28;20563;-57
2023/12/12 04:15:31;;;;;;;25.10;6.28;;;;;;;4.41;100.00;100581.28;5069672;28;20472;-57
2023/12/12 04:17:56;;;;;;;27.73;6.72;;;;;;;4.39;100.00;100581.56;5078842;28;20161;-57
2023/12/12 04:20:22;;;;;;;21.85;6.00;;;;;;;4.42;100.00;100572.81;5089707;28;20442;-57
2023/12/12 04:22:47;;;;;;;24.25;6.63;;;;;;;4.48;100.00;100581.84;5080169;28;20038;-56
2023/12/12 04:25:12;;;;;;;27.63;7.32;;;;;;;4.51;100.00;100581.28;5104884;28;20032;-57
2023/12/12 04:27:38;;;;;;;30.27;9.43;;;;;;;4.52;100.00;100582.94;5082547;28;20480;-57
2023/12/12 04:30:07;;;;;;;26.67;8.38;;;;;;;4.56;100.00;100581.31;5069757;28;20054;-57
2023/12/12 04:32:33;;;;;;;25.85;6.95;;;;;;;4.60;100.00;100574.19;5079721;28;20506;-57
2023/12/12 04:34:59;;;;;;;25.08;6.63;;;;;;;4.61;100.00;100570.34;5084810;28;20067;-57
2023/12/12 04:37:24;;;;;;;28.00;6.80;;;;;;;4.65;100.00;100581.56;5089005;28;20476;-57
2023/12/12 04:39:50;;;;;;;28.73;6.95;;;;;;;4.68;100.00;100576.38;5069638;28;20040;-57
2023/12/12 04:42:15;;;;;;;27.25;6.82;;;;;;;4.69;100.00;100571.72;5069509;28;20468;-57
2023/12/12 04:44:41;;;;;;;27.02;6.55;;;;;;;4.75;100.00;100570.63;5077367;28;20052;-57
2023/12/12 04:47:07;;;;;;;30.98;8.70;;;;;;;4.78;100.00;100564.59;5079687;28;20035;-57
2023/12/12 04:49:32;;;;;;;30.55;9.00;;;;;;;4.82;100.00;100567.63;5069429;28;20032;-57
2023/12/12 04:51:58;;;;;;;29.02;7.20;;;;;;;4.83;100.00;100561.84;5069346;28;20028;-57
2023/12/12 04:54:23;;;;;;;26.70;6.63;;;;;;;4.86;100.00;100557.75;5069384;28;20039;-56
2023/12/12 04:56:48;;;;;;;28.08;7.05;;;;;;;4.88;100.00;100552.00;5069329;28;20075;-57
2023/12/12 04:59:14;;;;;;;25.65;7.18;;;;;;;4.89;100.00;100548.97;5074097;28;20033;-57
2023/12/12 05:01:39;;;;;;;29.95;6.75;;;;;;;4.93;100.00;100544.59;5090751;28;20020;-56
2023/12/12 05:04:04;;;;;;;34.70;9.23;;;;;;;4.98;100.00;100546.50;5075329;28;20025;-57
2023/12/12 05:06:30;;;;;;;31.73;8.43;;;;;;;4.98;100.00;100544.56;5074577;28;20399;-57
2023/12/12 05:08:55;;;;;;;29.42;7.28;;;;;;;5.01;100.00;100543.19;5073043;28;20040;-57
2023/12/12 05:11:20;;;;;;;24.60;6.78;;;;;;;5.04;100.00;100542.66;5088059;28;20028;-57
2023/12/12 05:13:46;;;;;;;31.08;6.88;;;;;;;5.08;100.00;100540.16;5079608;28;20085;-57
2023/12/12 05:16:11;;;;;;;28.13;7.18;;;;;;;5.11;100.00;100534.16;5072392;28;20016;-56
2023/12/12 05:18:37;;;;;;;27.95;7.50;;;;;;;5.13;100.00;100534.69;5081563;28;20017;-57
2023/12/12 05:21:02;;;;;;;26.92;6.97;;;;;;;5.13;100.00;100527.28;5090077;28;20475;-56
2023/12/12 05:23:28;;;;;;;28.45;7.05;;;;;;;5.14;100.00;100528.91;5080696;28;20033;-57
2023/12/12 05:25:53;;;;;;;31.52;7.60;;;;;;;5.17;100.00;100529.47;5072254;28;20050;-58
2023/12/12 05:28:20;;;;;;;26.98;6.85;;;;;;;5.18;100.00;100511.94;5086988;28;20107;-57
2023/12/12 05:30:45;;;;;;;30.10;8.10;;;;;;;5.16;100.00;100517.66;5052765;28;20103;-57
2023/12/12 05:33:11;;;;;;;29.77;6.90;;;;;;;5.23;100.00;100515.47;5055883;28;20071;-57
2023/12/12 05:35:36;;;;;;;27.05;7.03;;;;;;;5.27;100.00;100515.75;5073438;28;20052;-58
2023/12/12 05:38:03;;;;;;;28.42;7.25;;;;;;;5.27;100.00;100516.56;5073348;28;20032;-58
2023/12/12 05:40:29;;;;;;;30.23;6.95;;;;;;;5.31;100.00;100519.56;5091906;28;20025;-57
2023/12/12 05:42:54;;;;;;;33.60;9.52;;;;;;;5.34;100.00;100518.19;5088701;28;20039;-57
2023/12/12 05:45:20;;;;;;;32.78;9.55;;;;;;;5.34;100.00;100516.25;5091090;28;20564;-56
2023/12/12 05:47:45;;;;;;;30.70;7.20;;;;;;;5.33;100.00;100520.09;5072599;28;20897;-57
2023/12/12 05:50:11;;;;;;;30.48;6.95;;;;;;;5.33;100.00;100517.34;5088085;28;20372;-56
2023/12/12 05:52:37;;;;;;;29.98;6.60;;;;;;;5.34;100.00;100515.44;5082888;28;20408;-57
2023/12/12 05:55:05;;;;;;;28.75;6.40;;;;;;;5.40;100.00;100523.38;5069666;28;20040;-57
2023/12/12 05:57:33;;;;;;;26.08;6.38;;;;;;;5.40;100.00;100523.38;5082267;28;20129;-57
2023/12/12 05:59:59;;;;;;;30.35;7.13;;;;;;;5.44;100.00;100526.38;5086326;28;20028;-57
2023/12/12 06:02:25;;;;;;;27.05;7.57;;;;;;;5.45;100.00;100515.13;5090666;28;20550;-57
2023/12/12 06:04:50;;;;;;;28.85;6.82;;;;;;;5.52;100.00;100508.50;5087622;28;20028;-58
2023/12/12 06:07:15;;;;;;;27.38;6.88;;;;;;;5.51;100.00;100513.19;5083608;28;20430;-57
2023/12/12 06:09:41;;;;;;;29.48;6.40;;;;;;;5.53;100.00;100510.97;5077633;28;20033;-57
2023/12/12 06:12:07;;;;;;;32.28;6.80;;;;;;;5.50;100.00;100508.81;5100994;28;20028;-56
2023/12/12 06:14:32;;;;;;;29.02;7.28;;;;;;;5.54;100.00;100511.81;5078444;28;20028;-57
2023/12/12 06:16:57;;;;;;;31.40;7.15;;;;;;;5.56;100.00;100504.13;5074030;28;20032;-57
2023/12/12 06:19:24;;;;;;;29.10;6.88;;;;;;;5.57;100.00;100503.81;5076683;28;20064;-57
2023/12/12 06:21:52;;;;;;;40.22;12.77;;;;;;;5.63;100.00;100507.38;5069921;28;20396;-56
2023/12/12 06:24:17;;;;;;;28.67;6.80;;;;;;;5.62;100.00;100512.03;5082705;28;20037;-57
2023/12/12 06:26:42;;;;;;;32.15;7.13;;;;;;;5.69;100.00;100506.25;5084617;28;20076;-56
2023/12/12 06:29:09;;;;;;;30.45;6.80;;;;;;;5.66;100.00;100504.06;5083740;28;20032;-57
2023/12/12 06:31:35;;;;;;;28.95;6.97;;;;;;;5.68;100.00;100498.28;5081592;28;20024;-57
2023/12/12 06:34:00;;;;;;;31.10;6.95;;;;;;;5.67;100.00;100499.41;5076175;28;20089;-57
2023/12/12 06:36:26;;;;;;;28.77;6.80;;;;;;;5.69;100.00;100494.47;5070918;28;20029;-57
2023/12/12 06:38:51;;;;;;;29.98;6.47;;;;;;;5.72;100.00;100485.63;5074465;28;20024;-56
2023/12/12 06:41:17;;;;;;;32.00;7.43;;;;;;;5.74;100.00;100487.03;5080051;28;20063;-56
2023/12/12 06:43:43;;;;;;;32.40;7.20;;;;;;;5.77;100.00;100482.88;5088257;28;20035;-57
2023/12/12 06:46:09;;;;;;;29.88;7.00;;;;;;;5.76;100.00;100470.25;5074878;28;20085;-57
2023/12/12 06:48:34;;;;;;;25.95;6.65;;;;;;;5.74;100.00;100473.28;5075206;28;20024;-56
2023/12/12 06:50:59;;;;;;;26.85;6.38;;;;;;;5.74;100.00;100467.81;5071848;28;20396;-57
2023/12/12 06:53:25;;;;;;;25.48;6.43;;;;;;;5.73;100.00;100473.56;5068943;28;20056;-57
2023/12/12 06:55:50;;;;;;;26.73;6.50;;;;;;;5.71;100.00;100460.13;5075938;28;20162;-57
2023/12/12 06:58:16;;;;;;;27.67;6.50;;;;;;;5.73;100.00;100462.56;5086384;28;20395;-57
2023/12/12 07:00:42;;;;;;;27.13;6.25;;;;;;;5.69;100.00;100453.28;5077163;28;20108;-57
2023/12/12 07:03:09;;;;;;;29.35;6.60;;;;;;;5.69;100.00;100454.09;5089376;28;20376;-58
2023/12/12 07:05:36;;;;;;;28.42;6.88;;;;;;;5.69;100.00;100458.78;5067868;28;20075;-57
2023/12/12 07:08:02;;;;;;;29.90;6.45;;;;;;;5.68;100.00;100443.41;5074549;28;20028;-57
2023/12/12 07:10:27;;;;;;;27.38;6.35;;;;;;;5.65;100.00;100444.81;5075399;28;20032;-57
2023/12/12 07:12:52;;;;;;;28.77;6.82;;;;;;;5.67;100.00;100441.75;5083007;28;20040;-57
2023/12/12 07:15:18;;;;;;;22.33;6.47;;;;;;;5.65;100.00;100443.97;5082879;28;20039;-57
2023/12/12 07:17:43;;;;;;;29.70;6.65;;;;;;;5.66;100.00;100440.97;5077461;28;20442;-58
2023/12/12 07:20:11;;;;;;;28.85;6.95;;;;;;;5.68;100.00;100437.91;5076610;28;20028;-57
2023/12/12 07:22:37;;;;;;;30.27;6.93;;;;;;;5.65;100.00;100433.00;5087637;28;20063;-57
2023/12/12 07:25:04;;;;;;;29.95;6.72;;;;;;;5.66;100.00;100438.22;5081750;28;20082;-57
2023/12/12 07:27:29;;;;;;;27.30;6.28;;;;;;;5.56;100.00;100432.78;5079203;28;20020;-57
2023/12/12 07:29:54;;;;;;;30.52;6.88;;;;;;;5.58;100.00;100442.34;5071095;28;20029;-57
2023/12/12 07:32:20;;;;;;;28.75;6.80;;;;;;;5.58;100.00;100447.84;5066839;28;20032;-57
2023/12/12 07:34:45;;;;;;;29.60;7.18;;;;;;;5.55;100.00;100448.41;5067321;28;20077;-57
2023/12/12 07:37:10;;;;;;;25.50;7.03;;;;;;;5.56;100.00;100447.31;5073930;28;20590;-58
2023/12/12 07:39:36;;;;;;;28.63;6.90;;;;;;;5.56;100.00;100439.06;5082344;28;20065;-57
2023/12/12 07:42:01;;;;;;;28.67;7.35;;;;;;;5.58;100.00;100438.78;5082818;28;20086;-58
2023/12/12 07:44:27;;;;;;;27.00;6.50;;;;;;;5.60;100.00;100437.41;5071109;28;20408;-57
2023/12/12 07:46:53;;;;;;;26.75;6.65;;;;;;;5.63;100.00;100439.56;5080435;28;20139;-57
2023/12/12 07:49:19;;;;;;;31.17;7.07;;;;;;;5.66;100.00;100429.97;5087315;28;20120;-57
2023/12/12 07:51:45;;;;;;;28.23;6.70;;;;;;;5.69;100.00;100423.91;5099171;28;20498;-57
2023/12/12 07:54:10;;;;;;;28.27;7.15;;;;;;;5.68;100.00;100407.72;5096880;28;20040;-57
2023/12/12 07:56:35;;;;;;;26.85;6.53;;;;;;;5.71;100.00;100407.97;5073486;28;20488;-58
2023/12/12 07:59:01;;;;;;;26.42;7.47;;;;;;;5.75;100.00;100413.72;5069140;28;20452;-57
2023/12/12 08:01:27;;;;;;;30.23;7.22;;;;;;;5.77;100.00;100406.84;5087145;28;20479;-57
2023/12/12 08:03:52;;;;;;;28.90;7.05;;;;;;;5.80;100.00;100399.13;5069780;28;20116;-56
2023/12/12 08:06:18;;;;;;;26.75;7.25;;;;;;;5.85;100.00;100399.94;5072821;28;20029;-57
2023/12/12 08:08:43;;;;;;;28.15;6.63;;;;;;;5.93;100.00;100402.06;5078100;28;20490;-56
2023/12/12 08:11:13;;;;;;;28.90;6.80;;;;;;;5.97;100.00;100387.78;5081101;28;20483;-55
2023/12/12 08:13:38;;;;;;;29.35;6.90;;;;;;;5.98;100.00;100398.44;5072400;28;20028;-56
2023/12/12 08:16:04;;;;;;;29.25;7.20;;;;;;;5.98;100.00;100397.66;5085047;28;20380;-52
2023/12/12 08:18:30;;;;;;;26.15;6.53;;;;;;;6.00;100.00;100393.53;5080281;28;20031;-55
2023/12/12 08:20:55;;;;;;;27.55;6.53;;;;;;;5.99;100.00;100396.53;5090612;28;20334;-55
2023/12/12 08:23:21;;;;;;;26.90;6.88;;;;;;;6.00;100.00;100389.97;5089888;28;20028;-55
2023/12/12 08:25:47;;;;;;;27.60;6.30;;;;;;;6.00;100.00;100400.97;5090038;28;20342;-55
2023/12/12 08:28:13;;;;;;;27.20;6.97;;;;;;;6.02;100.00;100393.25;5089999;28;20047;-54
2023/12/12 08:30:38;;;;;;;25.48;5.93;;;;;;;6.06;100.00;100395.13;5060030;28;20036;-56
2023/12/12 08:33:04;;;;;;;28.08;6.40;;;;;;;6.13;100.00;100383.00;5047769;28;20024;-56
2023/12/12 08:35:29;;;;;;;24.45;6.38;;;;;;;6.17;100.00;100378.56;5048778;28;20040;-56
2023/12/12 08:37:54;;;;;;;31.10;7.10;;;;;;;6.18;100.00;100375.56;5050111;28;20116;-55
2023/12/12 08:40:21;;;;;;;25.52;6.60;;;;;;;6.19;100.00;100373.59;5051864;28;20033;-55
2023/12/12 08:42:46;;;;;;;26.60;6.82;;;;;;;6.24;100.00;100377.13;5051810;28;20059;-55
2023/12/12 08:45:11;;;;;;;24.73;6.25;;;;;;;6.29;100.00;100367.19;5051931;28;20112;-55
2023/12/12 08:47:37;;;;;;;31.45;7.65;;;;;;;6.35;100.00;100358.63;5051780;28;20040;-55
2023/12/12 08:50:04;;;;;;;29.10;6.47;;;;;;;6.42;100.00;100357.47;5051675;28;20029;-53
2023/12/12 08:52:31;;;;;;;30.90;6.95;;;;;;;6.50;100.00;100354.09;5051663;28;20469;-55
2023/12/12 08:54:57;;;;;;;28.60;7.40;;;;;;;6.57;100.00;100354.56;5051581;28;20027;-55
2023/12/12 08:57:22;;;;;;;27.80;7.45;;;;;;;6.63;100.00;100342.38;5049927;28;20033;-55
2023/12/12 08:59:47;;;;;;;28.23;7.05;;;;;;;6.72;100.00;100345.31;5051367;28;20033;-55
2023/12/12 09:02:12;;;;;;;31.90;7.03;;;;;;;6.82;100.00;100350.72;5051321;28;20045;-55
2023/12/12 09:04:38;;;;;;;27.77;8.38;;;;;;;6.88;100.00;100345.97;5051356;28;20075;-55
2023/12/12 09:07:03;;;;;;;31.33;7.75;;;;;;;6.93;100.00;100345.91;5051382;28;20384;-54
2023/12/12 09:09:31;;;;;;;27.02;7.45;;;;;;;6.99;100.00;100350.22;5051026;28;20040;-55
2023/12/12 09:11:57;;;;;;;26.52;6.32;;;;;;;7.03;100.00;100344.97;5061356;28;20049;-54
2023/12/12 09:14:22;;;;;;;24.05;6.88;;;;;;;7.12;100.00;100343.19;5076648;28;20395;-55
2023/12/12 09:16:47;;;;;;;28.17;6.80;;;;;;;7.16;100.00;100340.66;5087708;28;20035;-55
2023/12/12 09:19:15;;;;;;;29.02;7.35;;;;;;;7.23;100.00;100335.63;5080226;28;20405;-55
2023/12/12 09:21:41;;;;;;;26.42;6.43;;;;;;;7.32;100.00;100336.59;5089376;28;20094;-54
2023/12/12 09:24:07;;;;;;;24.90;6.38;;;;;;;7.38;100.00;100331.00;5080869;28;20495;-55
2023/12/12 09:26:32;;;;;;;25.77;6.82;;;;;;;7.44;100.00;100316.88;5071065;28;20365;-55
2023/12/12 09:28:57;;;;;;;26.17;6.60;;;;;;;7.49;100.00;100311.31;5077495;28;20555;-56
2023/12/12 09:31:26;;;;;;;27.23;6.57;;;;;;;7.57;100.00;100300.72;5082198;28;20100;-54
2023/12/12 09:33:52;;;;;;;24.02;6.25;;;;;;;7.63;100.00;100305.84;5090789;28;20564;-56
2023/12/12 09:36:18;;;;;;;24.92;5.97;;;;;;;7.71;100.00;100311.78;5070576;28;20028;-55
2023/12/12 09:38:44;;;;;;;29.73;6.82;;;;;;;7.77;100.00;100302.31;5069252;28;20107;-55
2023/12/12 09:41:22;;;;;;;23.63;6.28;;;;;;;7.79;100.00;100287.13;5070735;28;20430;-55
2023/12/12 09:43:49;;;;;;;27.83;5.85;;;;;;;7.88;100.00;100297.47;5070437;28;20069;-55
2023/12/12 09:46:15;;;;;;;26.00;6.28;;;;;;;7.94;100.00;100288.81;5080148;28;20081;-56
2023/12/12 09:48:42;;;;;;;24.67;5.63;;;;;;;7.94;100.00;100293.50;5080116;28;20036;-55
2023/12/12 09:51:08;;;;;;;24.75;5.80;;;;;;;8.06;100.00;100298.53;5074106;28;20033;-56
2023/12/12 09:53:35;;;;;;;24.60;6.00;;;;;;;8.09;100.00;100301.50;5078037;28;20036;-55
2023/12/12 09:56:06;;;;;;;25.77;5.47;;;;;;;8.12;100.00;100303.66;5070079;28;20024;-55
2023/12/12 09:58:32;;;;;;;27.10;5.65;;;;;;;8.17;100.00;100297.25;5070790;28;20119;-56
2023/12/12 10:01:01;;;;;;;27.40;5.88;;;;;;;8.21;100.00;100279.00;5070613;28;20040;-56
2023/12/12 10:03:28;;;;;;;28.98;5.90;;;;;;;8.33;100.00;100281.25;5074663;28;20111;-56
2023/12/12 10:05:56;;;;;;;27.00;7.60;;;;;;;8.35;100.00;100261.63;5088187;28;20032;-55
2023/12/12 10:08:22;;;;;;;22.63;5.65;;;;;;;8.39;100.00;100260.72;5086295;28;20028;-56
2023/12/12 10:10:52;;;;;;;23.23;5.60;;;;;;;8.46;100.00;100257.56;5074890;28;20028;-54
2023/12/12 10:13:17;;;;;;;25.42;5.60;;;;;;;8.51;100.00;100251.16;5070206;28;20039;-56
2023/12/12 10:15:43;;;;;;;26.90;5.82;;;;;;;8.56;100.00;100240.84;5099331;28;20035;-55
2023/12/12 10:18:09;;;;;;;22.25;6.70;;;;;;;8.65;100.00;100234.59;5090283;28;20060;-55
2023/12/12 10:20:35;;;;;;;23.70;5.55;;;;;;;8.70;100.00;100223.44;5090537;28;20024;-56
2023/12/12 10:23:02;;;;;;;23.58;5.47;;;;;;;8.76;100.00;100225.00;5090218;28;20376;-56
2023/12/12 10:25:29;;;;;;;21.30;5.25;;;;;;;8.78;100.00;100220.00;5090015;28;20028;-56
2023/12/12 10:27:55;;;;;;;23.55;5.00;;;;;;;8.79;100.00;100209.75;5089551;28;20028;-56
2023/12/12 10:30:21;;;;;;;21.00;4.95;;;;;;;8.82;100.00;100209.94;5090029;28;20028;-56
2023/12/12 10:32:53;;;;;;;21.60;4.63;;;;;;;8.87;100.00;100217.31;5090144;28;20106;-55
2023/12/12 10:35:22;;;;;;;19.70;4.35;;;;;;;8.92;100.00;100214.44;5089860;28;20030;-56
2023/12/12 10:37:51;;;;;;;22.25;5.70;;;;;;;9.01;100.00;100215.34;5080359;28;20041;-54
2023/12/12 10:40:22;;;;;;;21.95;4.55;;;;;;;9.02;100.00;100203.16;5083962;28;20034;-56
2023/12/12 10:42:50;;;;;;;22.20;4.75;;;;;;;9.17;100.00;100206.69;5091177;28;20443;-56
2023/12/12 10:45:16;;;;;;;21.25;4.60;;;;;;;9.26;100.00;100196.53;5083905;28;20033;-56
2023/12/12 10:47:46;;;;;;;16.92;3.78;;;;;;;9.34;100.00;100195.78;5070197;28;20055;-56
2023/12/12 10:50:14;;;;;;;19.95;3.83;;;;;;;9.39;100.00;100189.31;5069301;28;20174;-55
2023/12/12 10:52:41;;;;;;;17.52;3.72;;;;;;;9.46;100.00;100189.69;5069323;28;20024;-55
2023/12/12 10:55:11;;;;;;;17.67;3.60;;;;;;;9.50;100.00;100189.88;5069206;28;20036;-56
2023/12/12 10:57:44;;;;;;;16.38;3.88;;;;;;;9.56;100.00;100185.88;5068980;28;20054;-56
2023/12/12 11:00:14;;;;;;;16.88;3.25;;;;;;;9.63;100.00;100179.91;5075340;28;20349;-56
2023/12/12 11:02:45;;;;;;;18.88;3.80;;;;;;;9.70;100.00;100183.00;5089653;28;20110;-55
2023/12/12 11:05:12;;;;;;;16.50;3.67;;;;;;;9.77;100.00;100177.03;5089169;28;20027;-55
2023/12/12 11:07:47;;;;;;;16.55;3.47;;;;;;;9.78;100.00;100165.66;5089211;28;20031;-55
2023/12/12 11:10:14;;;;;;;17.50;3.63;;;;;;;9.81;100.00;100167.81;5083971;28;20082;-54